createdAt,value
2023-03-05T00:00:48.413Z,52.05
2023-03-05T00:01:48.372Z,52.37
2023-03-05T00:02:48.457Z,53.17
2023-03-05T00:03:48.475Z,53.17
2023-03-05T00:04:48.323Z,53.01
2023-03-05T00:05:48.331Z,53.98
2023-03-05T00:06:48.322Z,53.50
2023-03-05T00:07:48.302Z,53.98
2023-03-05T00:08:48.369Z,53.98
2023-03-05T00:09:48.302Z,53.66
2023-03-05T00:10:48.377Z,53.17
2023-03-05T00:11:48.369Z,54.79
2023-03-05T00:12:48.374Z,53.50
2023-03-05T00:13:48.395Z,53.50
2023-03-05T00:14:48.389Z,53.66
2023-03-05T00:15:48.422Z,53.66
2023-03-05T00:16:48.402Z,53.01
2023-03-05T00:17:48.329Z,53.33
2023-03-05T00:18:48.396Z,53.66
2023-03-05T00:19:48.354Z,53.33
2023-03-05T00:20:48.282Z,53.98
2023-03-05T00:21:48.404Z,53.82
2023-03-05T00:22:48.282Z,53.66
2023-03-05T00:23:48.383Z,53.50
2023-03-05T00:24:48.351Z,54.95
2023-03-05T00:25:48.247Z,54.14
2023-03-05T00:26:48.245Z,53.50
2023-03-05T00:27:48.155Z,53.82
2023-03-05T00:28:48.172Z,54.46
2023-03-05T00:29:48.187Z,53.98
2023-03-05T00:30:48.324Z,53.50
2023-03-05T00:31:48.117Z,53.50
2023-03-05T00:32:48.268Z,53.50
2023-03-05T00:33:48.177Z,53.66
2023-03-05T00:34:48.252Z,53.50
2023-03-05T00:35:48.457Z,53.82
2023-03-05T00:36:48.262Z,53.98
2023-03-05T00:37:48.194Z,53.50
2023-03-05T00:38:48.182Z,53.33
2023-03-05T00:39:48.214Z,53.01
2023-03-05T00:40:48.169Z,53.50
2023-03-05T00:41:49.331Z,53.33
2023-03-05T00:42:48.155Z,53.66
2023-03-05T00:43:48.124Z,53.50
2023-03-05T00:44:48.200Z,53.66
2023-03-05T00:45:48.144Z,53.50
2023-03-05T00:46:48.310Z,53.33
2023-03-05T00:47:48.134Z,53.33
2023-03-05T00:48:48.317Z,53.50
2023-03-05T00:49:48.070Z,53.66
2023-03-05T00:50:48.003Z,53.66
2023-03-05T00:51:47.978Z,53.50
2023-03-05T00:52:48.123Z,53.17
2023-03-05T00:53:47.999Z,53.98
2023-03-05T00:54:47.991Z,53.01
2023-03-05T00:55:47.985Z,53.17
2023-03-05T00:56:47.968Z,53.33
2023-03-05T00:57:47.990Z,53.50
2023-03-05T00:58:47.993Z,53.33
2023-03-05T00:59:47.983Z,53.50
2023-03-05T01:00:48.069Z,53.66
2023-03-05T01:01:48.098Z,53.33
2023-03-05T01:02:48.137Z,53.50
2023-03-05T01:03:47.984Z,53.50
2023-03-05T01:04:48.078Z,53.17
2023-03-05T01:05:47.994Z,53.66
2023-03-05T01:06:47.924Z,53.33
2023-03-05T01:07:47.944Z,52.85
2023-03-05T01:08:48.018Z,53.33
2023-03-05T01:09:47.982Z,53.50
2023-03-05T01:10:47.924Z,53.50
2023-03-05T01:11:47.952Z,52.85
2023-03-05T01:12:47.930Z,52.69
2023-03-05T01:13:47.971Z,52.69
2023-03-05T01:14:47.929Z,52.37
2023-03-05T01:15:47.900Z,53.01
2023-03-05T01:16:47.917Z,52.85
2023-03-05T01:17:48.072Z,52.53
2023-03-05T01:18:47.884Z,52.05
2023-03-05T01:19:47.953Z,52.21
2023-03-05T01:20:47.890Z,53.66
2023-03-05T01:21:47.764Z,53.33
2023-03-05T01:22:47.891Z,52.85
2023-03-05T01:23:47.771Z,53.01
2023-03-05T01:24:47.775Z,52.69
2023-03-05T01:25:47.905Z,53.17
2023-03-05T01:26:47.725Z,53.01
2023-03-05T01:27:47.801Z,53.50
2023-03-05T01:28:47.851Z,53.50
2023-03-05T01:29:47.824Z,53.33
2023-03-05T01:30:47.805Z,53.01
2023-03-05T01:31:47.799Z,53.17
2023-03-05T01:32:47.840Z,53.33
2023-03-05T01:33:47.765Z,53.17
2023-03-05T01:34:47.726Z,53.17
2023-03-05T01:35:47.886Z,53.17
2023-03-05T01:36:47.758Z,53.82
2023-03-05T01:37:47.797Z,53.82
2023-03-05T01:38:47.790Z,54.46
2023-03-05T01:39:47.802Z,53.33
2023-03-05T01:40:49.224Z,53.50
2023-03-05T01:41:47.690Z,53.66
2023-03-05T01:42:47.579Z,53.50
2023-03-05T01:43:47.575Z,53.66
2023-03-05T01:44:47.662Z,53.01
2023-03-05T01:45:47.607Z,53.17
2023-03-05T01:46:47.568Z,53.33
2023-03-05T01:47:47.661Z,53.50
2023-03-05T01:48:47.681Z,53.66
2023-03-05T01:49:47.650Z,53.66
2023-03-05T01:50:47.634Z,53.82
2023-03-05T01:51:47.647Z,53.33
2023-03-05T01:52:47.610Z,53.50
2023-03-05T01:53:47.626Z,53.17
2023-03-05T01:54:47.613Z,53.50
2023-03-05T01:55:47.582Z,53.33
2023-03-05T01:56:47.706Z,53.17
2023-03-05T01:57:47.580Z,52.37
2023-03-05T01:58:47.465Z,53.01
2023-03-05T01:59:47.509Z,52.85
2023-03-05T02:00:47.528Z,53.01
2023-03-05T02:01:47.428Z,52.69
2023-03-05T02:02:47.696Z,52.85
2023-03-05T02:03:47.481Z,53.01
2023-03-05T02:04:47.435Z,52.69
2023-03-05T02:05:47.476Z,53.01
2023-03-05T02:06:47.422Z,52.53
2023-03-05T02:07:47.448Z,52.85
2023-03-05T02:08:47.538Z,52.85
2023-03-05T02:09:47.475Z,53.01
2023-03-05T02:10:47.470Z,52.37
2023-03-05T02:11:47.471Z,52.85
2023-03-05T02:12:47.446Z,53.01
2023-03-05T02:13:47.487Z,53.17
2023-03-05T02:14:47.509Z,53.50
2023-03-05T02:15:47.435Z,53.17
2023-03-05T02:16:47.488Z,53.01
2023-03-05T02:17:47.492Z,52.85
2023-03-05T02:18:47.434Z,53.01
2023-03-05T02:19:47.473Z,53.50
2023-03-05T02:20:47.431Z,53.17
2023-03-05T02:21:47.321Z,53.17
2023-03-05T02:22:47.301Z,52.53
2023-03-05T02:23:47.305Z,52.69
2023-03-05T02:24:47.300Z,53.17
2023-03-05T02:25:47.283Z,53.66
2023-03-05T02:26:47.279Z,53.01
2023-03-05T02:27:47.236Z,52.85
2023-03-05T02:28:47.265Z,52.69
2023-03-05T02:29:47.296Z,53.33
2023-03-05T02:30:47.225Z,53.66
2023-03-05T02:31:47.348Z,53.17
2023-03-05T02:32:47.335Z,53.50
2023-03-05T02:33:47.393Z,53.33
2023-03-05T02:34:47.287Z,52.85
2023-03-05T02:35:47.399Z,53.33
2023-03-05T02:36:47.274Z,53.17
2023-03-05T02:37:47.273Z,53.17
2023-03-05T02:38:47.308Z,53.82
2023-03-05T02:39:47.303Z,53.01
2023-03-05T02:40:47.608Z,53.17
2023-03-05T02:41:47.278Z,53.33
2023-03-05T02:42:47.128Z,53.01
2023-03-05T02:43:47.200Z,53.01
2023-03-05T02:44:47.309Z,53.01
2023-03-05T02:45:47.189Z,53.33
2023-03-05T02:46:47.161Z,53.01
2023-03-05T02:47:47.129Z,53.01
2023-03-05T02:48:47.101Z,53.33
2023-03-05T02:49:47.190Z,53.33
2023-03-05T02:50:47.171Z,53.17
2023-03-05T02:51:47.208Z,52.85
2023-03-05T02:52:47.240Z,52.85
2023-03-05T02:53:47.146Z,52.53
2023-03-05T02:54:47.162Z,52.21
2023-03-05T02:55:47.199Z,53.17
2023-03-05T02:56:47.122Z,53.50
2023-03-05T02:57:47.175Z,53.33
2023-03-05T02:58:47.128Z,52.53
2023-03-05T02:59:47.192Z,52.85
2023-03-05T03:00:47.098Z,53.17
2023-03-05T03:01:47.025Z,53.01
2023-03-05T03:02:47.156Z,52.85
2023-03-05T03:03:47.005Z,53.17
2023-03-05T03:04:46.989Z,53.17
2023-03-05T03:05:47.016Z,53.17
2023-03-05T03:06:46.981Z,52.69
2023-03-05T03:07:46.971Z,53.17
2023-03-05T03:08:47.130Z,53.50
2023-03-05T03:09:47.031Z,53.01
2023-03-05T03:10:47.045Z,53.01
2023-03-05T03:11:47.018Z,53.01
2023-03-05T03:12:47.045Z,52.85
2023-03-05T03:13:47.029Z,53.17
2023-03-05T03:14:47.001Z,53.33
2023-03-05T03:15:47.006Z,53.66
2023-03-05T03:16:47.009Z,53.50
2023-03-05T03:17:47.000Z,52.85
2023-03-05T03:18:46.985Z,53.01
2023-03-05T03:19:46.971Z,53.17
2023-03-05T03:20:46.875Z,53.01
2023-03-05T03:21:46.967Z,52.69
2023-03-05T03:22:47.881Z,53.01
2023-03-05T03:23:46.858Z,53.33
2023-03-05T03:24:47.046Z,53.17
2023-03-05T03:25:46.924Z,52.69
2023-03-05T03:26:46.970Z,53.17
2023-03-05T03:27:46.917Z,53.33
2023-03-05T03:28:46.999Z,53.17
2023-03-05T03:29:46.936Z,52.69
2023-03-05T03:30:47.078Z,52.69
2023-03-05T03:31:46.886Z,52.69
2023-03-05T03:32:46.955Z,52.69
2023-03-05T03:33:46.865Z,52.37
2023-03-05T03:34:46.942Z,52.69
2023-03-05T03:35:46.928Z,53.50
2023-03-05T03:36:46.836Z,53.17
2023-03-05T03:37:46.844Z,52.69
2023-03-05T03:38:46.786Z,52.69
2023-03-05T03:39:46.745Z,53.01
2023-03-05T03:40:46.740Z,52.69
2023-03-05T03:41:46.805Z,53.01
2023-03-05T03:42:46.793Z,53.82
2023-03-05T03:43:46.822Z,52.85
2023-03-05T03:44:46.786Z,52.69
2023-03-05T03:45:46.862Z,53.01
2023-03-05T03:46:46.818Z,53.50
2023-03-05T03:47:46.823Z,53.01
2023-03-05T03:48:46.844Z,52.53
2023-03-05T03:49:46.830Z,53.17
2023-03-05T03:50:46.866Z,52.53
2023-03-05T03:51:46.840Z,53.33
2023-03-05T03:52:46.735Z,52.85
2023-03-05T03:53:46.642Z,52.85
2023-03-05T03:54:46.662Z,52.53
2023-03-05T03:55:46.725Z,52.69
2023-03-05T03:56:46.617Z,53.01
2023-03-05T03:57:46.649Z,52.85
2023-03-05T03:58:46.620Z,52.85
2023-03-05T03:59:46.622Z,53.33
2023-03-05T04:00:46.592Z,52.37
2023-03-05T04:01:46.744Z,53.01
2023-03-05T04:02:47.703Z,52.69
2023-03-05T04:03:46.702Z,53.01
2023-03-05T04:04:46.660Z,52.85
2023-03-05T04:05:46.692Z,52.69
2023-03-05T04:06:46.640Z,52.69
2023-03-05T04:07:46.739Z,52.69
2023-03-05T04:08:46.701Z,53.01
2023-03-05T04:09:46.616Z,52.69
2023-03-05T04:10:46.775Z,53.01
2023-03-05T04:11:46.564Z,53.01
2023-03-05T04:12:46.592Z,53.01
2023-03-05T04:13:46.620Z,52.53
2023-03-05T04:14:46.579Z,52.85
2023-03-05T04:15:46.621Z,52.85
2023-03-05T04:16:46.486Z,52.69
2023-03-05T04:17:46.496Z,52.53
2023-03-05T04:18:46.501Z,52.85
2023-03-05T04:19:46.465Z,52.69
2023-03-05T04:20:46.640Z,52.37
2023-03-05T04:21:46.526Z,53.01
2023-03-05T04:22:46.540Z,52.85
2023-03-05T04:23:46.552Z,52.69
2023-03-05T04:24:46.507Z,52.53
2023-03-05T04:25:46.491Z,53.17
2023-03-05T04:26:46.562Z,52.69
2023-03-05T04:27:46.528Z,52.69
2023-03-05T04:28:46.491Z,52.37
2023-03-05T04:29:46.545Z,52.69
2023-03-05T04:30:46.432Z,52.69
2023-03-05T04:31:46.394Z,52.69
2023-03-05T04:32:46.424Z,52.21
2023-03-05T04:33:46.381Z,52.37
2023-03-05T04:34:46.421Z,52.21
2023-03-05T04:35:46.397Z,52.85
2023-03-05T04:36:46.352Z,53.50
2023-03-05T04:37:46.368Z,53.17
2023-03-05T04:38:46.328Z,52.53
2023-03-05T04:39:46.531Z,53.50
2023-03-05T04:40:46.439Z,53.33
2023-03-05T04:41:46.458Z,53.33
2023-03-05T04:42:46.413Z,53.50
2023-03-05T04:43:46.474Z,53.33
2023-03-05T04:44:46.363Z,53.50
2023-03-05T04:45:46.680Z,53.50
2023-03-05T04:46:46.433Z,53.01
2023-03-05T04:47:46.352Z,53.33
2023-03-05T04:48:46.328Z,53.17
2023-03-05T04:49:46.329Z,52.21
2023-03-05T04:50:46.361Z,52.53
2023-03-05T04:51:46.363Z,52.53
2023-03-05T04:52:46.252Z,52.69
2023-03-05T04:53:46.214Z,53.01
2023-03-05T04:54:46.328Z,53.33
2023-03-05T04:55:46.211Z,55.91
2023-03-05T04:56:46.222Z,53.98
2023-03-05T04:57:46.170Z,53.66
2023-03-05T04:58:46.188Z,53.50
2023-03-05T04:59:46.150Z,52.69
2023-03-05T05:00:46.175Z,52.85
2023-03-05T05:01:46.342Z,52.69
2023-03-05T05:02:46.261Z,53.01
2023-03-05T05:03:46.222Z,53.33
2023-03-05T05:04:46.201Z,53.17
2023-03-05T05:05:46.241Z,53.50
2023-03-05T05:06:46.220Z,51.72
2023-03-05T05:07:46.232Z,45.76
2023-03-05T05:08:46.173Z,44.79
2023-03-05T05:09:46.189Z,45.28
2023-03-05T05:10:46.187Z,44.79
2023-03-05T05:11:46.070Z,44.63
2023-03-05T05:12:46.120Z,44.79
2023-03-05T05:13:46.060Z,47.05
2023-03-05T05:14:46.221Z,46.41
2023-03-05T05:15:46.057Z,47.86
2023-03-05T05:16:46.148Z,45.44
2023-03-05T05:17:46.237Z,45.92
2023-03-05T05:18:46.120Z,44.96
2023-03-05T05:19:46.039Z,44.31
2023-03-05T05:20:46.096Z,44.96
2023-03-05T05:21:46.195Z,45.76
2023-03-05T05:22:46.138Z,45.60
2023-03-05T05:23:46.136Z,45.76
2023-03-05T05:24:46.089Z,45.12
2023-03-05T05:25:46.081Z,44.96
2023-03-05T05:26:46.066Z,45.60
2023-03-05T05:27:46.034Z,45.44
2023-03-05T05:28:46.162Z,44.63
2023-03-05T05:29:45.961Z,44.47
2023-03-05T05:30:45.936Z,45.12
2023-03-05T05:31:45.958Z,45.12
2023-03-05T05:32:45.994Z,45.28
2023-03-05T05:33:48.075Z,44.96
2023-03-05T05:34:45.954Z,46.41
2023-03-05T05:35:45.998Z,44.15
2023-03-05T05:36:46.102Z,43.99
2023-03-05T05:37:45.962Z,45.12
2023-03-05T05:38:46.021Z,44.96
2023-03-05T05:39:45.973Z,46.89
2023-03-05T05:40:46.039Z,46.25
2023-03-05T05:41:45.928Z,46.57
2023-03-05T05:42:46.042Z,47.37
2023-03-05T05:43:45.971Z,46.73
2023-03-05T05:44:46.097Z,45.76
2023-03-05T05:45:46.069Z,45.92
2023-03-05T05:46:45.953Z,46.25
2023-03-05T05:47:45.915Z,47.53
2023-03-05T05:48:45.819Z,45.76
2023-03-05T05:49:45.791Z,45.44
2023-03-05T05:50:46.219Z,45.12
2023-03-05T05:51:45.822Z,45.12
2023-03-05T05:52:45.773Z,44.96
2023-03-05T05:53:45.776Z,45.12
2023-03-05T05:54:45.763Z,45.44
2023-03-05T05:55:45.797Z,45.60
2023-03-05T05:56:45.759Z,44.63
2023-03-05T05:57:45.750Z,45.76
2023-03-05T05:58:45.823Z,48.66
2023-03-05T05:59:45.907Z,49.47
2023-03-05T06:00:45.845Z,45.44
2023-03-05T06:01:46.017Z,45.76
2023-03-05T06:02:45.867Z,44.79
2023-03-05T06:03:45.941Z,47.05
2023-03-05T06:04:45.808Z,48.50
2023-03-05T06:05:45.894Z,47.70
2023-03-05T06:06:45.763Z,46.25
2023-03-05T06:07:45.842Z,49.95
2023-03-05T06:08:45.673Z,47.70
2023-03-05T06:09:45.647Z,49.79
2023-03-05T06:10:45.668Z,49.95
2023-03-05T06:11:45.676Z,50.11
2023-03-05T06:12:45.657Z,46.25
2023-03-05T06:13:45.656Z,46.73
2023-03-05T06:14:45.600Z,48.02
2023-03-05T06:15:45.629Z,47.05
2023-03-05T06:16:45.702Z,46.25
2023-03-05T06:17:45.687Z,50.11
2023-03-05T06:18:48.898Z,48.66
2023-03-05T06:20:16.487Z,48.02
2023-03-05T06:20:46.639Z,47.70
2023-03-05T06:21:45.641Z,45.60
2023-03-05T06:22:45.803Z,50.11
2023-03-05T06:23:45.684Z,49.15
2023-03-05T06:24:45.694Z,47.53
2023-03-05T06:25:45.639Z,46.57
2023-03-05T06:26:45.692Z,49.31
2023-03-05T06:27:45.659Z,45.60
2023-03-05T06:29:04.410Z,46.25
2023-03-05T06:29:45.541Z,46.73
2023-03-05T06:30:45.560Z,49.63
2023-03-05T06:31:45.608Z,49.31
2023-03-05T06:32:45.501Z,49.31
2023-03-05T06:33:45.619Z,46.89
2023-03-05T06:34:45.527Z,51.08
2023-03-05T06:35:45.508Z,48.50
2023-03-05T06:36:45.446Z,48.18
2023-03-05T06:37:45.469Z,47.05
2023-03-05T06:38:45.833Z,49.95
2023-03-05T06:39:45.441Z,50.60
2023-03-05T06:40:45.519Z,48.02
2023-03-05T06:41:45.516Z,50.27
2023-03-05T06:42:45.518Z,48.02
2023-03-05T06:43:45.589Z,45.28
2023-03-05T06:44:47.194Z,49.79
2023-03-05T06:45:45.690Z,47.86
2023-03-05T06:46:45.492Z,44.96
2023-03-05T06:47:45.398Z,45.28
2023-03-05T06:48:45.483Z,46.57
2023-03-05T06:49:45.621Z,51.72
2023-03-05T06:50:45.404Z,52.85
2023-03-05T06:51:45.545Z,48.66
2023-03-05T06:52:45.487Z,48.34
2023-03-05T06:53:46.378Z,49.15
2023-03-05T06:54:45.753Z,49.15
2023-03-05T06:55:45.372Z,51.40
2023-03-05T06:56:45.320Z,48.02
2023-03-05T06:57:45.326Z,48.18
2023-03-05T06:58:45.342Z,48.66
2023-03-05T06:59:45.295Z,48.02
2023-03-05T07:00:45.342Z,49.79
2023-03-05T07:01:45.304Z,49.63
2023-03-05T07:02:45.366Z,48.98
2023-03-05T07:03:45.284Z,50.43
2023-03-05T07:04:45.280Z,48.98
2023-03-05T07:05:45.311Z,49.15
2023-03-05T07:06:45.382Z,48.66
2023-03-05T07:07:45.393Z,49.15
2023-03-05T07:10:54.123Z,47.70
2023-03-05T07:11:54.022Z,50.11
2023-03-05T07:12:54.044Z,49.15
2023-03-05T07:13:54.020Z,49.95
2023-03-05T07:14:54.014Z,52.85
2023-03-05T07:15:54.539Z,50.11
2023-03-05T07:16:54.110Z,47.86
2023-03-05T07:17:54.074Z,48.18
2023-03-05T07:18:54.061Z,47.70
2023-03-05T07:19:53.986Z,48.02
2023-03-05T07:20:54.051Z,49.95
2023-03-05T07:21:54.104Z,50.11
2023-03-05T07:22:54.054Z,49.15
2023-03-05T07:23:54.005Z,50.11
2023-03-05T07:24:54.062Z,50.92
2023-03-05T07:25:54.056Z,49.15
2023-03-05T07:26:54.073Z,48.82
2023-03-05T07:27:54.014Z,49.79
2023-03-05T07:28:54.025Z,52.37
2023-03-05T07:29:54.113Z,51.56
2023-03-05T07:30:54.065Z,52.69
2023-03-05T07:31:53.999Z,52.69
2023-03-05T07:32:54.020Z,53.33
2023-03-05T07:33:53.920Z,51.72
2023-03-05T07:34:53.930Z,52.37
2023-03-05T07:35:53.901Z,53.50
2023-03-05T07:36:53.971Z,53.01
2023-03-05T07:37:54.101Z,53.17
2023-03-05T07:38:53.964Z,49.79
2023-03-05T07:39:53.931Z,50.43
2023-03-05T07:40:53.948Z,48.82
2023-03-05T07:41:53.998Z,49.79
2023-03-05T07:42:53.945Z,46.89
2023-03-05T07:43:54.042Z,47.86
2023-03-05T07:44:53.952Z,48.98
2023-03-05T07:46:00.877Z,49.95
2023-03-05T07:46:53.913Z,49.79
2023-03-05T07:47:53.981Z,49.63
2023-03-05T07:48:54.028Z,48.66
2023-03-05T07:49:53.812Z,51.08
2023-03-05T07:50:53.818Z,50.76
2023-03-05T07:51:53.900Z,52.05
2023-03-05T07:52:53.789Z,51.24
2023-03-05T07:53:53.858Z,52.21
2023-03-05T07:54:54.078Z,51.56
2023-03-05T07:55:53.860Z,50.76
2023-03-05T07:56:53.850Z,51.40
2023-03-05T07:57:53.840Z,49.63
2023-03-05T07:58:53.875Z,49.15
2023-03-05T07:59:53.852Z,48.98
2023-03-05T08:00:53.796Z,48.18
2023-03-05T08:01:53.896Z,50.27
2023-03-05T08:02:53.801Z,50.27
2023-03-05T08:03:53.958Z,48.66
2023-03-05T08:04:53.675Z,49.15
2023-03-05T08:05:53.738Z,49.15
2023-03-05T08:06:53.670Z,51.56
2023-03-05T08:07:53.748Z,47.70
2023-03-05T08:08:53.665Z,47.21
2023-03-05T08:09:53.774Z,48.18
2023-03-05T08:10:53.905Z,52.85
2023-03-05T08:11:53.750Z,48.50
2023-03-05T08:12:53.795Z,50.43
2023-03-05T08:13:53.768Z,49.79
2023-03-05T08:14:53.709Z,51.40
2023-03-05T08:15:53.736Z,50.27
2023-03-05T08:16:53.836Z,49.31
2023-03-05T08:17:53.688Z,50.76
2023-03-05T08:18:53.700Z,50.11
2023-03-05T08:19:53.741Z,51.08
2023-03-05T08:20:53.673Z,51.08
2023-03-05T08:21:55.591Z,49.63
2023-03-05T08:22:53.672Z,53.50
2023-03-05T08:23:53.563Z,51.40
2023-03-05T08:24:53.587Z,52.53
2023-03-05T08:25:53.650Z,49.63
2023-03-05T08:26:53.621Z,50.27
2023-03-05T08:27:53.691Z,50.92
2023-03-05T08:28:54.611Z,51.08
2023-03-05T08:29:53.607Z,49.63
2023-03-05T08:30:53.713Z,50.92
2023-03-05T08:31:53.716Z,48.82
2023-03-05T08:32:53.684Z,49.31
2023-03-05T08:33:53.672Z,52.21
2023-03-05T08:34:53.608Z,52.69
2023-03-05T08:35:53.667Z,53.82
2023-03-05T08:36:54.563Z,53.50
2023-03-05T08:37:53.621Z,51.72
2023-03-05T08:38:53.620Z,52.21
2023-03-05T08:39:54.467Z,51.88
2023-03-05T08:40:53.465Z,52.53
2023-03-05T08:41:53.600Z,50.60
2023-03-05T08:42:53.458Z,54.95
2023-03-05T08:43:53.502Z,53.50
2023-03-05T08:44:53.455Z,52.37
2023-03-05T08:45:53.539Z,52.53
2023-03-05T08:46:53.974Z,52.85
2023-03-05T08:47:53.710Z,53.66
2023-03-05T08:48:53.586Z,53.50
2023-03-05T08:49:53.571Z,53.17
2023-03-05T08:50:53.510Z,54.62
2023-03-05T08:51:53.776Z,53.82
2023-03-05T08:52:53.689Z,51.08
2023-03-05T08:53:53.444Z,52.69
2023-03-05T08:54:53.909Z,50.76
2023-03-05T08:55:53.566Z,50.43
2023-03-05T08:56:53.536Z,51.72
2023-03-05T08:57:53.493Z,51.24
2023-03-05T08:58:53.442Z,55.75
2023-03-05T08:59:54.029Z,53.01
2023-03-05T09:00:53.834Z,50.43
2023-03-05T09:01:54.048Z,53.33
2023-03-05T09:02:53.409Z,55.43
2023-03-05T09:03:53.415Z,55.75
2023-03-05T09:04:53.620Z,55.11
2023-03-05T09:05:53.992Z,53.98
2023-03-05T09:06:53.440Z,54.30
2023-03-05T09:07:53.733Z,52.05
2023-03-05T09:08:53.535Z,55.75
2023-03-05T09:09:54.388Z,52.53
2023-03-05T09:10:54.093Z,50.92
2023-03-05T09:11:53.766Z,53.01
2023-03-05T09:12:53.682Z,51.08
2023-03-05T09:13:53.577Z,53.01
2023-03-05T09:14:53.517Z,51.40
2023-03-05T09:15:53.319Z,51.56
2023-03-05T09:16:53.690Z,53.82
2023-03-05T09:17:53.557Z,53.17
2023-03-05T09:18:53.500Z,51.72
2023-03-05T09:19:53.599Z,53.50
2023-03-05T09:20:53.814Z,51.40
2023-03-05T09:21:56.623Z,51.24
2023-03-05T09:22:53.761Z,51.56
2023-03-05T09:23:53.907Z,52.53
2023-03-05T09:24:53.809Z,53.50
2023-03-05T09:25:54.050Z,53.17
2023-03-05T09:26:53.730Z,53.82
2023-03-05T09:27:54.100Z,55.91
2023-03-05T09:28:53.808Z,54.79
2023-03-05T09:29:53.697Z,53.66
2023-03-05T09:30:53.756Z,53.33
2023-03-05T09:31:53.869Z,51.40
2023-03-05T09:32:54.092Z,52.05
2023-03-05T09:33:53.900Z,53.66
2023-03-05T09:34:53.539Z,51.72
2023-03-05T09:35:53.916Z,51.08
2023-03-05T09:36:53.819Z,53.33
2023-03-05T09:37:53.487Z,52.53
2023-03-05T09:38:53.943Z,55.11
2023-03-05T09:39:53.730Z,53.98
2023-03-05T09:40:53.658Z,51.72
2023-03-05T09:41:53.701Z,54.14
2023-03-05T09:42:53.653Z,52.37
2023-03-05T09:43:53.791Z,52.85
2023-03-05T09:44:53.562Z,54.95
2023-03-05T09:45:53.096Z,53.33
2023-03-05T09:46:53.336Z,49.31
2023-03-05T09:47:53.705Z,53.50
2023-03-05T09:48:53.628Z,53.66
2023-03-05T09:49:53.656Z,52.05
2023-03-05T09:50:53.668Z,52.21
2023-03-05T09:51:53.529Z,53.01
2023-03-05T09:52:53.656Z,52.37
2023-03-05T09:53:53.708Z,54.30
2023-03-05T09:54:53.994Z,53.66
2023-03-05T09:55:53.649Z,53.50
2023-03-05T09:56:53.203Z,54.46
2023-03-05T09:57:53.711Z,55.43
2023-03-05T09:58:56.001Z,55.11
2023-03-05T09:59:53.016Z,53.66
2023-03-05T10:00:53.730Z,54.46
2023-03-05T10:01:53.069Z,53.50
2023-03-05T10:02:53.362Z,50.76
2023-03-05T10:03:53.529Z,53.82
2023-03-05T10:04:53.491Z,56.07
2023-03-05T10:05:53.563Z,55.75
2023-03-05T10:06:53.297Z,53.98
2023-03-05T10:07:53.123Z,56.07
2023-03-05T10:08:53.010Z,56.24
2023-03-05T10:09:53.070Z,52.53
2023-03-05T10:10:52.995Z,55.59
2023-03-05T10:11:53.045Z,52.53
2023-03-05T10:12:53.463Z,55.27
2023-03-05T10:13:53.539Z,56.88
2023-03-05T10:14:53.130Z,57.04
2023-03-05T10:15:52.814Z,51.40
2023-03-05T10:16:53.362Z,53.17
2023-03-05T10:17:52.849Z,54.95
2023-03-05T10:18:53.045Z,53.66
2023-03-05T10:19:52.869Z,52.53
2023-03-05T10:20:53.115Z,50.76
2023-03-05T10:21:52.969Z,52.37
2023-03-05T10:22:53.639Z,52.53
2023-03-05T10:23:52.866Z,56.07
2023-03-05T10:24:52.883Z,52.85
2023-03-05T10:25:52.904Z,53.98
2023-03-05T10:26:52.972Z,53.82
2023-03-05T10:27:54.398Z,53.50
2023-03-05T10:28:53.904Z,54.14
2023-03-05T10:29:52.786Z,51.72
2023-03-05T10:30:53.140Z,52.21
2023-03-05T10:31:53.090Z,52.21
2023-03-05T10:32:53.036Z,53.33
2023-03-05T10:33:53.026Z,51.72
2023-03-05T10:34:52.908Z,54.14
2023-03-05T10:35:52.701Z,53.33
2023-03-05T10:36:52.714Z,53.01
2023-03-05T10:37:52.757Z,56.40
2023-03-05T10:38:52.708Z,56.56
2023-03-05T10:39:52.732Z,50.76
2023-03-05T10:40:52.778Z,54.79
2023-03-05T10:41:52.996Z,54.79
2023-03-05T10:42:52.958Z,53.01
2023-03-05T10:43:53.204Z,54.95
2023-03-05T10:44:52.903Z,52.69
2023-03-05T10:45:52.849Z,55.91
2023-03-05T10:46:54.726Z,55.91
2023-03-05T10:47:53.198Z,53.01
2023-03-05T10:48:53.212Z,55.11
2023-03-05T10:49:53.333Z,54.14
2023-03-05T10:50:53.141Z,51.56
2023-03-05T10:51:52.963Z,54.14
2023-03-05T10:52:52.899Z,54.46
2023-03-05T10:53:52.804Z,53.66
2023-03-05T10:54:52.951Z,53.66
2023-03-05T10:55:53.301Z,52.21
2023-03-05T10:56:52.848Z,52.37
2023-03-05T10:57:53.360Z,51.72
2023-03-05T10:58:53.159Z,53.01
2023-03-05T10:59:52.979Z,54.79
2023-03-05T11:00:53.518Z,53.33
2023-03-05T11:01:52.624Z,51.40
2023-03-05T11:02:53.229Z,49.63
2023-03-05T11:03:52.567Z,51.40
2023-03-05T11:04:52.638Z,51.08
2023-03-05T11:05:52.584Z,53.33
2023-03-05T11:06:52.602Z,53.50
2023-03-05T11:07:52.592Z,53.01
2023-03-05T11:08:52.609Z,52.69
2023-03-05T11:09:52.617Z,55.11
2023-03-05T11:10:53.234Z,56.07
2023-03-05T11:11:52.476Z,56.40
2023-03-05T11:12:52.436Z,56.56
2023-03-05T11:13:53.276Z,57.69
2023-03-05T11:14:52.978Z,57.20
2023-03-05T11:15:53.127Z,55.75
2023-03-05T11:16:54.233Z,56.07
2023-03-05T11:17:53.011Z,55.59
2023-03-05T11:18:53.178Z,56.56
2023-03-05T11:19:53.002Z,58.01
2023-03-05T11:20:52.947Z,59.46
2023-03-05T11:21:53.077Z,57.36
2023-03-05T11:22:53.011Z,55.91
2023-03-05T11:23:53.164Z,57.69
2023-03-05T11:24:53.008Z,57.36
2023-03-05T11:25:53.006Z,53.98
2023-03-05T11:26:52.959Z,57.69
2023-03-05T11:27:54.699Z,55.43
2023-03-05T11:28:54.010Z,58.65
2023-03-05T11:29:52.727Z,56.24
2023-03-05T11:30:52.689Z,54.95
2023-03-05T11:31:52.826Z,54.30
2023-03-05T11:32:52.534Z,53.50
2023-03-05T11:33:52.728Z,54.95
2023-03-05T11:34:52.495Z,57.69
2023-03-05T11:35:52.824Z,58.49
2023-03-05T11:36:52.790Z,58.17
2023-03-05T11:37:52.628Z,58.65
2023-03-05T11:38:53.241Z,53.98
2023-03-05T11:39:52.842Z,55.11
2023-03-05T11:40:52.519Z,56.24
2023-03-05T11:41:52.480Z,57.04
2023-03-05T11:42:52.858Z,53.82
2023-03-05T11:43:52.707Z,54.79
2023-03-05T11:44:52.843Z,53.98
2023-03-05T11:45:52.575Z,53.01
2023-03-05T11:46:52.759Z,54.30
2023-03-05T11:47:53.004Z,54.30
2023-03-05T11:48:52.731Z,56.40
2023-03-05T11:49:52.559Z,53.82
2023-03-05T11:50:52.244Z,54.95
2023-03-05T11:51:52.795Z,53.17
2023-03-05T11:52:52.655Z,52.85
2023-03-05T11:53:52.141Z,50.43
2023-03-05T11:54:52.332Z,52.85
2023-03-05T11:55:52.348Z,56.07
2023-03-05T11:56:52.480Z,56.88
2023-03-05T11:57:52.438Z,54.46
2023-03-05T11:58:52.234Z,55.91
2023-03-05T11:59:53.299Z,56.24
2023-03-05T12:00:52.976Z,56.40
2023-03-05T12:01:52.815Z,56.40
2023-03-05T12:02:52.281Z,54.79
2023-03-05T12:03:52.535Z,55.43
2023-03-05T12:04:52.535Z,56.40
2023-03-05T12:05:52.842Z,54.95
2023-03-05T12:06:52.362Z,54.95
2023-03-05T12:07:52.462Z,54.79
2023-03-05T12:08:53.253Z,55.59
2023-03-05T12:09:52.206Z,56.07
2023-03-05T12:10:52.499Z,55.59
2023-03-05T12:11:52.161Z,56.24
2023-03-05T12:12:52.068Z,54.79
2023-03-05T12:13:52.092Z,57.04
2023-03-05T12:14:52.062Z,54.14
2023-03-05T12:15:52.210Z,53.82
2023-03-05T12:16:52.315Z,53.82
2023-03-05T12:17:52.085Z,54.62
2023-03-05T12:18:52.066Z,56.40
2023-03-05T12:19:52.006Z,57.20
2023-03-05T12:20:52.155Z,54.46
2023-03-05T12:21:52.103Z,54.95
2023-03-05T12:22:52.324Z,53.01
2023-03-05T12:23:52.299Z,56.56
2023-03-05T12:24:52.330Z,56.56
2023-03-05T12:25:53.044Z,57.36
2023-03-05T12:26:52.254Z,57.52
2023-03-05T12:27:52.290Z,53.66
2023-03-05T12:28:51.994Z,54.30
2023-03-05T12:29:52.399Z,58.17
2023-03-05T12:30:51.980Z,54.46
2023-03-05T12:31:53.050Z,54.14
2023-03-05T12:32:52.370Z,53.50
2023-03-05T12:33:51.878Z,55.43
2023-03-05T12:34:52.434Z,54.95
2023-03-05T12:35:52.084Z,56.07
2023-03-05T12:36:53.370Z,55.27
2023-03-05T12:37:52.182Z,54.30
2023-03-05T12:38:51.998Z,56.56
2023-03-05T12:39:52.124Z,57.52
2023-03-05T12:40:52.067Z,57.20
2023-03-05T12:41:51.912Z,57.04
2023-03-05T12:42:53.211Z,58.49
2023-03-05T12:43:52.020Z,58.01
2023-03-05T12:44:51.956Z,57.20
2023-03-05T12:45:51.894Z,54.95
2023-03-05T12:46:51.986Z,57.04
2023-03-05T12:47:51.877Z,57.85
2023-03-05T12:48:51.988Z,57.04
2023-03-05T12:49:51.878Z,55.75
2023-03-05T12:50:51.884Z,57.04
2023-03-05T12:51:52.020Z,57.52
2023-03-05T12:52:51.854Z,55.11
2023-03-05T12:53:51.771Z,55.43
2023-03-05T12:54:52.218Z,54.95